New Albany, OH

5:38 PM EDT on April 01, 2015 (GMT -0400)
Ohio State University | | Change Station
CLOSE
Current Station
Airport
Location: Ohio State University,
Elevation: 906 ft
Nearby Weather Stations

Elev 906 ft 40.08 °N, 83.08 °W | Updated 45 minutes ago

Clear
Clear
63 °F
Feels Like 63 °F
N
4
Wind Variable Wind from ESE

Today
High -- | Low -- °F
--% Chance of Precip.
Yesterday
High -- | Low -- °F
Precip. -- in
7:15 AM 7:55 PM
Waxing Gibbous, 94% visible
Pressure 30.09 in
Visibility 10.0 miles
Clouds Clear
Dew Point 31 °F
Humidity 30%
Rainfall 0.00 in
Snow Depth Not available.
UV 4 out of 12
Pollen 9.80 out of 12
Air Quality Not available.
Flu Activity Not available.
METAR KOSU 012053Z 11003KT 10SM CLR 17/M01 A3008 RMK AO2 SLP189 T01721006 56022

More Conditions Fewer Conditions

Pressure 30.09 in
Visibility 10.0 miles
Clouds Clear
Dew Point 31 °F
Humidity 30%
Rainfall 0.00 in
Snow Depth Not available.
UV 4 out of 12
Pollen 9.80 out of 12
Air Quality Not available.
Flu Activity Not available.
METAR KOSU 012053Z 11003KT 10SM CLR 17/M01 A3008 RMK AO2 SLP189 T01721006 56022

More Conditions Fewer Conditions

10-Day Weather Forecast

Almanac

Astronomy

Apr. 01, 2015 Rise Set
Actual Time
Civil Twilight
Nautical Twilight
Astronomical Twilight
Moon
Length of Visible Light
Length of Day
Tomorrow will be .
, % of the Moon is Illuminated

Today's Extremes

State Highs State Lows

Community

WunderPhotos

Upload Photos

1,810,090 photos uploaded!

WunderBlogs® & News

Nearby

Air Quality

  Air Quality AQ Index Pollutant
Not available.

Snow Depth

Station Depth Elevation

Earthquake Activity

City Distance Mag. Time & Date
Minimum magnitude displayed is 2.5.

Coastal Water Temperatures

Place Temperature

Stations

Nearby Weather Stations

Station Location Temp. Windchill Dew Point Humidity Wind Precip. Elev Updated Type